sensor_id;sensor_type;location;lat;lon;timestamp;temperature;humidity
7498;DHT22;3790;48.806;9.140;2023-04-25T00:02:29;8.60;99.90
7498;DHT22;3790;48.806;9.140;2023-04-25T00:07:29;8.70;99.90
7498;DHT22;3790;48.806;9.140;2023-04-25T00:12:30;8.70;99.90
7498;DHT22;3790;48.806;9.140;2023-04-25T00:17:30;8.70;99.90
7498;DHT22;3790;48.806;9.140;2023-04-25T00:22:32;8.80;99.90
7498;DHT22;3790;48.806;9.140;2023-04-25T00:27:33;8.70;99.90
7498;DHT22;3790;48.806;9.140;2023-04-25T00:32:34;8.70;99.90
7498;DHT22;3790;48.806;9.140;2023-04-25T00:37:34;8.80;99.90
7498;DHT22;3790;48.806;9.140;2023-04-25T00:42:35;8.60;99.90
7498;DHT22;3790;48.806;9.140;2023-04-25T00:47:37;8.60;99.90
7498;DHT22;3790;48.806;9.140;2023-04-25T00:52:41;8.70;99.90
7498;DHT22;3790;48.806;9.140;2023-04-25T00:57:43;8.60;99.90
7498;DHT22;3790;48.806;9.140;2023-04-25T01:02:44;8.70;99.90
7498;DHT22;3790;48.806;9.140;2023-04-25T01:07:45;8.70;99.90
7498;DHT22;3790;48.806;9.140;2023-04-25T01:12:46;8.80;99.90
7498;DHT22;3790;48.806;9.140;2023-04-25T01:17:47;8.70;99.90
7498;DHT22;3790;48.806;9.140;2023-04-25T01:22:50;8.70;99.90
7498;DHT22;3790;48.806;9.140;2023-04-25T01:27:52;8.60;99.90
7498;DHT22;3790;48.806;9.140;2023-04-25T01:32:57;8.60;99.90
7498;DHT22;3790;48.806;9.140;2023-04-25T01:37:59;8.50;99.90
7498;DHT22;3790;48.806;9.140;2023-04-25T01:42:59;8.50;99.90
7498;DHT22;3790;48.806;9.140;2023-04-25T01:48:00;8.50;99.90
7498;DHT22;3790;48.806;9.140;2023-04-25T01:53:01;8.50;99.90
7498;DHT22;3790;48.806;9.140;2023-04-25T01:58:02;8.50;99.90
7498;DHT22;3790;48.806;9.140;2023-04-25T02:03:03;8.50;99.90
7498;DHT22;3790;48.806;9.140;2023-04-25T02:08:06;8.40;99.90
7498;DHT22;3790;48.806;9.140;2023-04-25T02:13:07;8.50;99.90
7498;DHT22;3790;48.806;9.140;2023-04-25T02:18:07;8.50;99.90
7498;DHT22;3790;48.806;9.140;2023-04-25T02:23:10;8.40;99.90
7498;DHT22;3790;48.806;9.140;2023-04-25T02:28:11;8.40;99.90
7498;DHT22;3790;48.806;9.140;2023-04-25T02:33:12;8.30;99.90
7498;DHT22;3790;48.806;9.140;2023-04-25T02:38:12;8.10;99.90
7498;DHT22;3790;48.806;9.140;2023-04-25T02:43:13;8.10;99.90
7498;DHT22;3790;48.806;9.140;2023-04-25T02:48:13;8.20;99.90
7498;DHT22;3790;48.806;9.140;2023-04-25T02:53:14;8.40;99.90
7498;DHT22;3790;48.806;9.140;2023-04-25T02:58:15;8.30;99.90
7498;DHT22;3790;48.806;9.140;2023-04-25T03:03:16;8.20;99.90
7498;DHT22;3790;48.806;9.140;2023-04-25T03:08:18;8.20;99.90
7498;DHT22;3790;48.806;9.140;2023-04-25T03:13:19;8.20;99.90
7498;DHT22;3790;48.806;9.140;2023-04-25T03:18:19;8.10;99.90
7498;DHT22;3790;48.806;9.140;2023-04-25T03:23:20;8.10;99.90
7498;DHT22;3790;48.806;9.140;2023-04-25T03:28:21;8.10;99.90
7498;DHT22;3790;48.806;9.140;2023-04-25T03:33:22;8.20;99.90
7498;DHT22;3790;48.806;9.140;2023-04-25T03:38:22;8.10;99.90
7498;DHT22;3790;48.806;9.140;2023-04-25T03:43:23;8.10;99.90
7498;DHT22;3790;48.806;9.140;2023-04-25T03:48:24;8.10;99.90
7498;DHT22;3790;48.806;9.140;2023-04-25T03:53:26;8.20;99.90
7498;DHT22;3790;48.806;9.140;2023-04-25T03:58:26;8.20;99.90
7498;DHT22;3790;48.806;9.140;2023-04-25T04:03:27;8.30;99.90
7498;DHT22;3790;48.806;9.140;2023-04-25T04:08:27;8.20;99.90
7498;DHT22;3790;48.806;9.140;2023-04-25T04:13:29;8.20;99.90
7498;DHT22;3790;48.806;9.140;2023-04-25T04:18:30;8.20;99.90
7498;DHT22;3790;48.806;9.140;2023-04-25T04:23:30;8.10;99.90
7498;DHT22;3790;48.806;9.140;2023-04-25T04:28:31;8.00;99.90
7498;DHT22;3790;48.806;9.140;2023-04-25T04:33:31;7.90;99.90
7498;DHT22;3790;48.806;9.140;2023-04-25T04:38:32;7.90;99.90
7498;DHT22;3790;48.806;9.140;2023-04-25T04:43:33;8.00;99.90
7498;DHT22;3790;48.806;9.140;2023-04-25T04:48:33;8.00;99.90
7498;DHT22;3790;48.806;9.140;2023-04-25T04:53:34;8.00;99.90
7498;DHT22;3790;48.806;9.140;2023-04-25T04:58:35;8.10;99.90
7498;DHT22;3790;48.806;9.140;2023-04-25T05:03:36;8.10;99.90
7498;DHT22;3790;48.806;9.140;2023-04-25T05:08:37;8.20;99.90
7498;DHT22;3790;48.806;9.140;2023-04-25T05:13:37;8.20;99.90
7498;DHT22;3790;48.806;9.140;2023-04-25T05:18:39;8.20;99.90
7498;DHT22;3790;48.806;9.140;2023-04-25T05:23:40;8.50;99.90
7498;DHT22;3790;48.806;9.140;2023-04-25T05:28:41;8.50;99.90
7498;DHT22;3790;48.806;9.140;2023-04-25T05:33:42;8.20;99.90
7498;DHT22;3790;48.806;9.140;2023-04-25T05:38:42;7.80;99.90
7498;DHT22;3790;48.806;9.140;2023-04-25T05:43:43;7.50;99.90
7498;DHT22;3790;48.806;9.140;2023-04-25T05:48:47;7.20;99.90
7498;DHT22;3790;48.806;9.140;2023-04-25T05:53:47;7.10;99.90
7498;DHT22;3790;48.806;9.140;2023-04-25T05:58:48;7.20;99.90
7498;DHT22;3790;48.806;9.140;2023-04-25T06:03:48;7.10;99.90
7498;DHT22;3790;48.806;9.140;2023-04-25T06:08:49;7.20;99.90
7498;DHT22;3790;48.806;9.140;2023-04-25T06:13:50;7.30;99.90
7498;DHT22;3790;48.806;9.140;2023-04-25T06:18:51;7.40;99.90
7498;DHT22;3790;48.806;9.140;2023-04-25T06:23:51;7.80;99.90
7498;DHT22;3790;48.806;9.140;2023-04-25T06:28:52;8.00;99.90
7498;DHT22;3790;48.806;9.140;2023-04-25T06:33:52;8.20;99.90
7498;DHT22;3790;48.806;9.140;2023-04-25T06:38:54;8.30;99.90
7498;DHT22;3790;48.806;9.140;2023-04-25T06:43:55;8.70;99.90
7498;DHT22;3790;48.806;9.140;2023-04-25T06:48:55;9.00;99.90
7498;DHT22;3790;48.806;9.140;2023-04-25T06:53:56;9.10;99.90
7498;DHT22;3790;48.806;9.140;2023-04-25T06:58:57;9.10;99.90
7498;DHT22;3790;48.806;9.140;2023-04-25T07:03:57;9.00;99.90
7498;DHT22;3790;48.806;9.140;2023-04-25T07:08:58;8.90;99.90
7498;DHT22;3790;48.806;9.140;2023-04-25T07:13:58;8.60;99.90
7498;DHT22;3790;48.806;9.140;2023-04-25T07:18:59;8.20;99.90
7498;DHT22;3790;48.806;9.140;2023-04-25T07:23:59;8.00;99.90
7498;DHT22;3790;48.806;9.140;2023-04-25T07:29:00;8.00;99.90
7498;DHT22;3790;48.806;9.140;2023-04-25T07:34:00;8.10;99.90
7498;DHT22;3790;48.806;9.140;2023-04-25T07:39:01;8.00;99.90
7498;DHT22;3790;48.806;9.140;2023-04-25T07:44:01;7.80;99.90
7498;DHT22;3790;48.806;9.140;2023-04-25T07:49:02;7.40;99.90
7498;DHT22;3790;48.806;9.140;2023-04-25T07:54:03;7.20;99.90
7498;DHT22;3790;48.806;9.140;2023-04-25T07:59:03;7.20;99.90
7498;DHT22;3790;48.806;9.140;2023-04-25T08:04:04;7.40;99.90
7498;DHT22;3790;48.806;9.140;2023-04-25T08:09:04;7.40;99.90
7498;DHT22;3790;48.806;9.140;2023-04-25T08:14:05;7.50;99.90
7498;DHT22;3790;48.806;9.140;2023-04-25T08:19:06;7.50;99.90
7498;DHT22;3790;48.806;9.140;2023-04-25T08:24:06;7.50;99.90
7498;DHT22;3790;48.806;9.140;2023-04-25T08:29:07;7.40;99.90
7498;DHT22;3790;48.806;9.140;2023-04-25T08:34:07;7.30;99.90
7498;DHT22;3790;48.806;9.140;2023-04-25T08:39:08;7.30;99.90
7498;DHT22;3790;48.806;9.140;2023-04-25T08:44:10;7.40;99.90
7498;DHT22;3790;48.806;9.140;2023-04-25T08:49:11;7.40;99.90
7498;DHT22;3790;48.806;9.140;2023-04-25T08:54:13;7.40;99.90
7498;DHT22;3790;48.806;9.140;2023-04-25T08:59:14;7.30;99.90
7498;DHT22;3790;48.806;9.140;2023-04-25T09:04:14;7.30;99.90
7498;DHT22;3790;48.806;9.140;2023-04-25T09:09:15;7.30;99.90
7498;DHT22;3790;48.806;9.140;2023-04-25T09:14:18;7.50;99.90
7498;DHT22;3790;48.806;9.140;2023-04-25T09:19:25;7.80;99.90
7498;DHT22;3790;48.806;9.140;2023-04-25T09:24:40;7.90;99.90
7498;DHT22;3790;48.806;9.140;2023-04-25T09:29:41;7.90;99.90
7498;DHT22;3790;48.806;9.140;2023-04-25T09:34:44;7.70;99.90
7498;DHT22;3790;48.806;9.140;2023-04-25T09:39:46;7.80;99.90
7498;DHT22;3790;48.806;9.140;2023-04-25T09:44:52;7.80;99.90
7498;DHT22;3790;48.806;9.140;2023-04-25T09:49:54;7.80;99.90
7498;DHT22;3790;48.806;9.140;2023-04-25T09:54:55;7.70;99.90
7498;DHT22;3790;48.806;9.140;2023-04-25T09:59:55;7.80;99.90
7498;DHT22;3790;48.806;9.140;2023-04-25T10:04:56;7.80;99.90
7498;DHT22;3790;48.806;9.140;2023-04-25T10:10:01;7.50;99.90
7498;DHT22;3790;48.806;9.140;2023-04-25T10:15:04;7.30;99.90
7498;DHT22;3790;48.806;9.140;2023-04-25T10:20:06;7.20;99.90
7498;DHT22;3790;48.806;9.140;2023-04-25T10:25:11;7.10;99.90
7498;DHT22;3790;48.806;9.140;2023-04-25T10:30:14;7.00;99.90
7498;DHT22;3790;48.806;9.140;2023-04-25T10:35:23;6.90;99.90
7498;DHT22;3790;48.806;9.140;2023-04-25T10:40:24;6.70;99.90
7498;DHT22;3790;48.806;9.140;2023-04-25T10:45:25;6.70;99.90
7498;DHT22;3790;48.806;9.140;2023-04-25T10:50:37;6.70;99.90
7498;DHT22;3790;48.806;9.140;2023-04-25T10:55:51;6.80;99.90
7498;DHT22;3790;48.806;9.140;2023-04-25T11:00:53;6.70;99.90
7498;DHT22;3790;48.806;9.140;2023-04-25T11:05:54;6.80;99.90
7498;DHT22;3790;48.806;9.140;2023-04-25T11:10:55;6.90;99.90
7498;DHT22;3790;48.806;9.140;2023-04-25T11:15:55;6.80;99.90
7498;DHT22;3790;48.806;9.140;2023-04-25T11:20:56;6.60;99.90
7498;DHT22;3790;48.806;9.140;2023-04-25T11:25:57;6.40;99.90
7498;DHT22;3790;48.806;9.140;2023-04-25T11:30:58;6.40;99.90
7498;DHT22;3790;48.806;9.140;2023-04-25T11:35:58;6.50;99.90
7498;DHT22;3790;48.806;9.140;2023-04-25T11:40:59;6.50;99.90
7498;DHT22;3790;48.806;9.140;2023-04-25T11:45:59;6.80;99.90
7498;DHT22;3790;48.806;9.140;2023-04-25T11:51:00;6.80;99.90
7498;DHT22;3790;48.806;9.140;2023-04-25T11:56:01;6.80;99.90
7498;DHT22;3790;48.806;9.140;2023-04-25T12:01:02;6.80;99.90
7498;DHT22;3790;48.806;9.140;2023-04-25T12:06:03;6.90;99.90
7498;DHT22;3790;48.806;9.140;2023-04-25T12:11:04;7.40;99.90
7498;DHT22;3790;48.806;9.140;2023-04-25T12:16:06;7.30;99.90
7498;DHT22;3790;48.806;9.140;2023-04-25T12:21:06;6.90;99.90
7498;DHT22;3790;48.806;9.140;2023-04-25T12:26:07;6.60;99.90
7498;DHT22;3790;48.806;9.140;2023-04-25T12:31:07;6.90;99.90
7498;DHT22;3790;48.806;9.140;2023-04-25T12:36:08;7.10;99.90
7498;DHT22;3790;48.806;9.140;2023-04-25T12:41:10;7.50;99.90
7498;DHT22;3790;48.806;9.140;2023-04-25T12:46:11;8.20;99.90
7498;DHT22;3790;48.806;9.140;2023-04-25T12:51:11;9.10;99.90
7498;DHT22;3790;48.806;9.140;2023-04-25T12:56:12;9.50;99.90
7498;DHT22;3790;48.806;9.140;2023-04-25T13:01:13;9.70;99.90
7498;DHT22;3790;48.806;9.140;2023-04-25T13:06:14;9.30;99.90
7498;DHT22;3790;48.806;9.140;2023-04-25T13:11:15;9.30;99.90
7498;DHT22;3790;48.806;9.140;2023-04-25T13:16:16;9.20;99.90
7498;DHT22;3790;48.806;9.140;2023-04-25T13:21:16;10.00;99.90
7498;DHT22;3790;48.806;9.140;2023-04-25T13:26:17;10.60;99.90
7498;DHT22;3790;48.806;9.140;2023-04-25T13:31:17;11.20;99.90
7498;DHT22;3790;48.806;9.140;2023-04-25T13:36:18;11.20;99.90
7498;DHT22;3790;48.806;9.140;2023-04-25T13:41:18;10.20;99.90
7498;DHT22;3790;48.806;9.140;2023-04-25T13:46:19;9.70;99.90
7498;DHT22;3790;48.806;9.140;2023-04-25T13:51:19;9.80;99.90
7498;DHT22;3790;48.806;9.140;2023-04-25T13:56:21;10.50;99.90
7498;DHT22;3790;48.806;9.140;2023-04-25T14:01:22;11.00;99.90
7498;DHT22;3790;48.806;9.140;2023-04-25T14:06:22;11.10;99.90
7498;DHT22;3790;48.806;9.140;2023-04-25T14:11:24;10.70;99.90
7498;DHT22;3790;48.806;9.140;2023-04-25T14:16:25;12.20;99.90
7498;DHT22;3790;48.806;9.140;2023-04-25T14:21:27;12.00;99.90
7498;DHT22;3790;48.806;9.140;2023-04-25T14:26:28;12.50;99.90
7498;DHT22;3790;48.806;9.140;2023-04-25T14:31:28;14.80;99.90
7498;DHT22;3790;48.806;9.140;2023-04-25T14:36:32;14.30;99.90
7498;DHT22;3790;48.806;9.140;2023-04-25T14:41:33;14.10;99.90
7498;DHT22;3790;48.806;9.140;2023-04-25T14:46:33;14.00;99.90
7498;DHT22;3790;48.806;9.140;2023-04-25T14:51:34;13.00;99.90
7498;DHT22;3790;48.806;9.140;2023-04-25T14:56:34;11.80;99.90
7498;DHT22;3790;48.806;9.140;2023-04-25T15:01:35;11.40;99.90
7498;DHT22;3790;48.806;9.140;2023-04-25T15:06:36;11.30;99.90
7498;DHT22;3790;48.806;9.140;2023-04-25T15:11:37;11.60;99.90
7498;DHT22;3790;48.806;9.140;2023-04-25T15:16:37;12.50;99.90
7498;DHT22;3790;48.806;9.140;2023-04-25T15:21:38;12.00;99.90
7498;DHT22;3790;48.806;9.140;2023-04-25T15:26:41;12.60;99.90
7498;DHT22;3790;48.806;9.140;2023-04-25T15:31:42;14.20;99.90
7498;DHT22;3790;48.806;9.140;2023-04-25T15:36:42;13.50;99.90
7498;DHT22;3790;48.806;9.140;2023-04-25T15:41:43;13.50;99.90
7498;DHT22;3790;48.806;9.140;2023-04-25T15:46:43;12.40;99.90
7498;DHT22;3790;48.806;9.140;2023-04-25T15:51:45;11.90;99.90
7498;DHT22;3790;48.806;9.140;2023-04-25T15:56:45;11.60;99.90
7498;DHT22;3790;48.806;9.140;2023-04-25T16:01:46;11.60;99.90
7498;DHT22;3790;48.806;9.140;2023-04-25T16:06:46;11.70;99.90
7498;DHT22;3790;48.806;9.140;2023-04-25T16:11:47;11.50;99.90
7498;DHT22;3790;48.806;9.140;2023-04-25T16:16:49;11.30;99.90
7498;DHT22;3790;48.806;9.140;2023-04-25T16:21:50;10.90;99.90
7498;DHT22;3790;48.806;9.140;2023-04-25T16:26:51;11.00;99.90
7498;DHT22;3790;48.806;9.140;2023-04-25T16:31:51;11.40;99.90
7498;DHT22;3790;48.806;9.140;2023-04-25T16:36:53;11.50;99.90
7498;DHT22;3790;48.806;9.140;2023-04-25T16:41:53;11.00;99.90
7498;DHT22;3790;48.806;9.140;2023-04-25T16:46:54;10.90;99.90
7498;DHT22;3790;48.806;9.140;2023-04-25T16:51:57;11.00;99.90
7498;DHT22;3790;48.806;9.140;2023-04-25T16:56:58;10.60;99.90
7498;DHT22;3790;48.806;9.140;2023-04-25T17:01:59;10.40;99.90
7498;DHT22;3790;48.806;9.140;2023-04-25T17:06:59;10.40;99.90
7498;DHT22;3790;48.806;9.140;2023-04-25T17:12:00;10.20;99.90
7498;DHT22;3790;48.806;9.140;2023-04-25T17:17:01;10.00;99.90
7498;DHT22;3790;48.806;9.140;2023-04-25T17:22:02;9.80;99.90
7498;DHT22;3790;48.806;9.140;2023-04-25T17:27:03;9.70;99.90
7498;DHT22;3790;48.806;9.140;2023-04-25T17:32:03;9.50;99.90
7498;DHT22;3790;48.806;9.140;2023-04-25T17:37:04;9.40;99.90
7498;DHT22;3790;48.806;9.140;2023-04-25T17:42:05;9.00;99.90
7498;DHT22;3790;48.806;9.140;2023-04-25T17:47:06;8.60;99.90
7498;DHT22;3790;48.806;9.140;2023-04-25T17:52:06;8.10;99.90
7498;DHT22;3790;48.806;9.140;2023-04-25T17:57:07;7.60;99.90
7498;DHT22;3790;48.806;9.140;2023-04-25T18:02:08;7.20;99.90
7498;DHT22;3790;48.806;9.140;2023-04-25T18:07:09;7.00;99.90
7498;DHT22;3790;48.806;9.140;2023-04-25T18:12:10;7.00;99.90
7498;DHT22;3790;48.806;9.140;2023-04-25T18:17:11;6.80;99.90
7498;DHT22;3790;48.806;9.140;2023-04-25T18:22:11;6.70;99.90
7498;DHT22;3790;48.806;9.140;2023-04-25T18:27:12;6.60;99.90
7498;DHT22;3790;48.806;9.140;2023-04-25T18:32:12;6.50;99.90
7498;DHT22;3790;48.806;9.140;2023-04-25T18:37:13;6.40;99.90
7498;DHT22;3790;48.806;9.140;2023-04-25T18:42:14;6.40;99.90
7498;DHT22;3790;48.806;9.140;2023-04-25T18:47:15;6.30;99.90
7498;DHT22;3790;48.806;9.140;2023-04-25T18:52:16;6.40;99.90
7498;DHT22;3790;48.806;9.140;2023-04-25T18:57:17;6.50;99.90
7498;DHT22;3790;48.806;9.140;2023-04-25T19:02:17;6.50;99.90
7498;DHT22;3790;48.806;9.140;2023-04-25T19:07:18;6.40;99.90
7498;DHT22;3790;48.806;9.140;2023-04-25T19:12:20;6.40;99.90
7498;DHT22;3790;48.806;9.140;2023-04-25T19:17:21;6.50;99.90
7498;DHT22;3790;48.806;9.140;2023-04-25T19:22:22;6.60;99.90
7498;DHT22;3790;48.806;9.140;2023-04-25T19:27:22;6.60;99.90
7498;DHT22;3790;48.806;9.140;2023-04-25T19:32:24;6.50;99.90
7498;DHT22;3790;48.806;9.140;2023-04-25T19:37:27;6.50;99.90
7498;DHT22;3790;48.806;9.140;2023-04-25T19:42:27;6.40;99.90
7498;DHT22;3790;48.806;9.140;2023-04-25T19:47:28;6.50;99.90
7498;DHT22;3790;48.806;9.140;2023-04-25T19:52:28;6.60;99.90
7498;DHT22;3790;48.806;9.140;2023-04-25T19:57:34;6.40;99.90
7498;DHT22;3790;48.806;9.140;2023-04-25T20:02:37;6.40;99.90
7498;DHT22;3790;48.806;9.140;2023-04-25T20:07:37;6.40;99.90
7498;DHT22;3790;48.806;9.140;2023-04-25T20:12:38;6.50;99.90
7498;DHT22;3790;48.806;9.140;2023-04-25T20:17:41;6.40;99.90
7498;DHT22;3790;48.806;9.140;2023-04-25T20:22:42;6.40;99.90
7498;DHT22;3790;48.806;9.140;2023-04-25T20:27:42;6.40;99.90
7498;DHT22;3790;48.806;9.140;2023-04-25T20:32:43;6.60;99.90
7498;DHT22;3790;48.806;9.140;2023-04-25T20:37:43;6.70;99.90
7498;DHT22;3790;48.806;9.140;2023-04-25T20:42:44;6.80;99.90
7498;DHT22;3790;48.806;9.140;2023-04-25T20:47:47;6.90;99.90
7498;DHT22;3790;48.806;9.140;2023-04-25T20:52:48;6.90;99.90
7498;DHT22;3790;48.806;9.140;2023-04-25T20:57:49;7.00;99.90
7498;DHT22;3790;48.806;9.140;2023-04-25T21:02:50;6.90;99.90
7498;DHT22;3790;48.806;9.140;2023-04-25T21:07:51;6.90;99.90
7498;DHT22;3790;48.806;9.140;2023-04-25T21:12:52;6.90;99.90
7498;DHT22;3790;48.806;9.140;2023-04-25T21:17:54;7.00;99.90
7498;DHT22;3790;48.806;9.140;2023-04-25T21:22:55;7.10;99.90
7498;DHT22;3790;48.806;9.140;2023-04-25T21:27:56;7.10;99.90
7498;DHT22;3790;48.806;9.140;2023-04-25T21:32:57;7.10;99.90
7498;DHT22;3790;48.806;9.140;2023-04-25T21:37:58;7.10;99.90
7498;DHT22;3790;48.806;9.140;2023-04-25T21:42:58;7.10;99.90
7498;DHT22;3790;48.806;9.140;2023-04-25T21:47:59;7.00;99.90
7498;DHT22;3790;48.806;9.140;2023-04-25T21:53:00;6.90;99.90
7498;DHT22;3790;48.806;9.140;2023-04-25T21:58:01;7.00;99.90
7498;DHT22;3790;48.806;9.140;2023-04-25T22:03:01;7.00;99.90
7498;DHT22;3790;48.806;9.140;2023-04-25T22:08:02;7.00;99.90
7498;DHT22;3790;48.806;9.140;2023-04-25T22:13:06;7.00;99.90
7498;DHT22;3790;48.806;9.140;2023-04-25T22:18:07;6.90;99.90
7498;DHT22;3790;48.806;9.140;2023-04-25T22:23:07;6.90;99.90
7498;DHT22;3790;48.806;9.140;2023-04-25T22:28:08;6.80;99.90
7498;DHT22;3790;48.806;9.140;2023-04-25T22:33:10;6.90;99.90
7498;DHT22;3790;48.806;9.140;2023-04-25T22:38:10;6.90;99.90
7498;DHT22;3790;48.806;9.140;2023-04-25T22:43:10;6.90;99.90
7498;DHT22;3790;48.806;9.140;2023-04-25T22:48:11;6.90;99.90
7498;DHT22;3790;48.806;9.140;2023-04-25T22:53:12;6.90;99.90
7498;DHT22;3790;48.806;9.140;2023-04-25T22:58:12;6.90;99.90
7498;DHT22;3790;48.806;9.140;2023-04-25T23:03:13;7.00;99.90
7498;DHT22;3790;48.806;9.140;2023-04-25T23:08:14;6.90;99.90
7498;DHT22;3790;48.806;9.140;2023-04-25T23:13:16;6.90;99.90
7498;DHT22;3790;48.806;9.140;2023-04-25T23:18:17;6.90;99.90
7498;DHT22;3790;48.806;9.140;2023-04-25T23:23:17;6.90;99.90
7498;DHT22;3790;48.806;9.140;2023-04-25T23:28:18;6.70;99.90
7498;DHT22;3790;48.806;9.140;2023-04-25T23:33:18;6.60;99.90
7498;DHT22;3790;48.806;9.140;2023-04-25T23:38:19;6.60;99.90
7498;DHT22;3790;48.806;9.140;2023-04-25T23:43:20;6.50;99.90
7498;DHT22;3790;48.806;9.140;2023-04-25T23:48:21;6.40;99.90
7498;DHT22;3790;48.806;9.140;2023-04-25T23:53:22;6.40;99.90
7498;DHT22;3790;48.806;9.140;2023-04-25T23:58:22;6.50;99.90
